Time;durP1;ratioP1;P1;durP2;ratioP2;P2;SDS_P1;SDS_P2;PMS_P1;PMS_P2;Temp;Humidity;BMP_temperature;BMP_pressure;BME280_temperature;BME280_humidity;BME280_pressure;Samples;Min_cycle;Max_cycle;Signal;HPM_P1;HPM_P2
2022/10/11 01:08:50;;;;;;;30.25;15.80;;;;;;;15.31;63.90;95886.22;5114795;27;20043;-76
2022/10/11 01:11:20;;;;;;;25.27;15.88;;;;;;;15.25;64.14;95887.38;5131924;27;20058;-76
2022/10/11 01:14:00;;;;;;;25.52;16.42;;;;;;;15.12;64.69;95896.84;5131581;27;20490;-76
2022/10/11 01:16:33;;;;;;;24.98;16.23;;;;;;;14.97;64.82;95856.97;5131053;27;20653;-76
2022/10/11 01:19:12;;;;;;;27.50;17.17;;;;;;;15.20;64.64;95895.44;5130710;27;20039;-76
2022/10/11 01:21:59;;;;;;;29.42;17.05;;;;;;;14.81;65.24;95847.53;5139462;27;20049;-76
2022/10/11 01:24:58;;;;;;;33.60;18.08;;;;;;;15.04;65.49;95892.94;5119054;27;20035;-76
2022/10/11 01:27:30;;;;;;;24.60;16.63;;;;;;;15.01;65.46;95887.38;5118679;27;20147;-76
2022/10/11 01:30:13;;;;;;;29.45;18.98;;;;;;;14.94;65.98;95881.59;5131638;27;20035;-76
2022/10/11 01:32:51;;;;;;;32.05;18.92;;;;;;;14.99;65.50;95878.84;5115968;27;20535;-76
2022/10/11 01:35:25;;;;;;;34.25;20.17;;;;;;;14.84;65.70;95860.31;5127469;27;20163;-76
2022/10/11 01:38:25;;;;;;;36.22;19.38;;;;;;;14.94;65.63;95877.03;5103090;27;20039;-76
2022/10/11 01:40:59;;;;;;;32.47;19.60;;;;;;;14.73;66.51;95872.97;5102076;27;20049;-76
2022/10/11 01:43:26;;;;;;;31.02;19.55;;;;;;;14.80;66.19;95876.09;5110504;27;20031;-76
2022/10/11 01:45:55;;;;;;;28.58;19.55;;;;;;;14.71;66.48;95875.13;5130866;27;20149;-76
2022/10/11 01:48:20;;;;;;;36.53;21.38;;;;;;;14.49;66.60;95837.47;5111915;27;20035;-76
2022/10/11 01:50:49;;;;;;;34.03;20.75;;;;;;;14.82;66.41;95875.81;5130580;27;20038;-76
2022/10/11 01:53:45;;;;;;;42.38;21.13;;;;;;;14.80;66.55;95876.09;5130003;27;20041;-76
2022/10/11 01:56:28;;;;;;;36.20;21.13;;;;;;;14.86;66.16;95876.84;5136544;27;20043;-76
2022/10/11 01:58:59;;;;;;;40.15;20.95;;;;;;;14.79;66.97;95881.75;5138691;27;20050;-76
2022/10/11 02:01:43;;;;;;;35.00;20.85;;;;;;;14.80;66.78;95880.66;5118649;27;20034;-76
2022/10/11 02:04:20;;;;;;;35.47;21.13;;;;;;;14.74;67.10;95879.09;5137792;27;20112;-76
2022/10/11 02:07:23;;;;;;;31.83;21.23;;;;;;;14.58;66.99;95886.47;5119352;27;20916;-76
2022/10/11 02:10:02;;;;;;;38.72;21.38;;;;;;;14.29;66.67;95823.19;5140191;27;20055;-76
2022/10/11 02:12:34;;;;;;;38.95;23.63;;;;;;;14.39;66.88;95829.53;5139130;27;20428;-76
2022/10/11 02:15:02;;;;;;;41.45;22.98;;;;;;;14.23;67.02;95813.63;5112853;27;20057;-76
2022/10/11 02:17:33;;;;;;;36.92;22.92;;;;;;;14.12;67.02;95788.13;5128689;27;20089;-76
2022/10/11 02:20:02;;;;;;;35.60;22.65;;;;;;;14.65;67.51;95874.38;5110158;27;20083;-76
2022/10/11 02:22:34;;;;;;;39.10;23.05;;;;;;;14.73;67.37;95878.31;5128927;27;20050;-76
2022/10/11 02:25:05;;;;;;;34.50;22.15;;;;;;;14.47;67.05;95843.06;5129071;27;20030;-76
2022/10/11 02:27:34;;;;;;;39.72;23.35;;;;;;;14.75;66.90;95872.69;5130540;27;20567;-76
2022/10/11 02:30:03;;;;;;;36.60;22.13;;;;;;;14.75;66.89;95868.16;5128585;27;20034;-76
2022/10/11 02:32:31;;;;;;;41.13;21.60;;;;;;;14.68;67.01;95863.16;5111301;27;20069;-76
2022/10/11 02:34:59;;;;;;;36.80;23.10;;;;;;;14.59;67.36;95866.69;5133691;27;20057;-76
2022/10/11 02:37:39;;;;;;;41.55;22.27;;;;;;;14.62;67.50;95864.28;5132385;27;20081;-76
2022/10/11 02:40:16;;;;;;;36.95;22.13;;;;;;;14.35;67.35;95818.59;5132647;27;20043;-76
2022/10/11 02:42:47;;;;;;;36.53;23.73;;;;;;;14.18;67.75;95811.03;5132264;27;20039;-75
2022/10/11 02:45:22;;;;;;;33.30;22.73;;;;;;;14.47;67.22;95840.41;5132215;27;20045;-76
2022/10/11 02:47:47;;;;;;;35.55;23.15;;;;;;;14.66;67.33;95867.16;5107561;28;20041;-75
2022/10/11 02:50:14;;;;;;;38.53;23.88;;;;;;;14.66;67.13;95865.28;5129372;27;20131;-76
2022/10/11 02:52:39;;;;;;;36.90;22.65;;;;;;;14.13;67.49;95778.25;5129812;27;20031;-76
2022/10/11 02:55:05;;;;;;;35.58;22.45;;;;;;;14.47;68.00;95847.59;5116602;27;20042;-76
2022/10/11 02:57:31;;;;;;;39.50;23.77;;;;;;;14.50;67.20;95833.69;5135037;27;20103;-76
2022/10/11 02:59:56;;;;;;;41.47;23.98;;;;;;;14.33;67.43;95812.75;5117696;27;20080;-76
2022/10/11 03:02:22;;;;;;;44.90;25.50;;;;;;;14.33;67.77;95818.09;5134329;27;20036;-76
2022/10/11 03:04:47;;;;;;;40.17;24.17;;;;;;;14.30;67.65;95797.28;5133574;27;20095;-76
2022/10/11 03:07:13;;;;;;;34.78;23.48;;;;;;;14.43;67.44;95820.69;5132153;27;20113;-76
2022/10/11 03:09:39;;;;;;;36.97;23.88;;;;;;;14.60;67.77;95850.41;5140683;27;20051;-76
2022/10/11 03:12:05;;;;;;;36.30;23.85;;;;;;;14.43;67.23;95811.88;5132368;27;20814;-76
2022/10/11 03:14:30;;;;;;;43.55;24.25;;;;;;;14.51;67.21;95820.06;5113673;27;20041;-76
2022/10/11 03:16:56;;;;;;;37.05;25.20;;;;;;;14.42;67.31;95805.75;5130964;27;20046;-76
2022/10/11 03:19:21;;;;;;;42.88;24.38;;;;;;;14.37;67.25;95810.31;5131910;27;20031;-76
2022/10/11 03:21:46;;;;;;;43.05;25.15;;;;;;;14.39;67.54;95825.00;5113339;27;20550;-76
2022/10/11 03:24:12;;;;;;;39.75;25.60;;;;;;;14.43;67.43;95827.88;5113200;27;20118;-76
2022/10/11 03:26:37;;;;;;;37.47;25.42;;;;;;;14.25;67.24;95800.81;5113591;27;20043;-76
2022/10/11 03:29:03;;;;;;;49.28;26.85;;;;;;;14.55;67.08;95825.66;5132485;27;20091;-76
2022/10/11 03:31:28;;;;;;;49.88;25.08;;;;;;;14.46;67.17;95805.97;5132586;27;20039;-76
2022/10/11 03:33:54;;;;;;;44.28;26.35;;;;;;;14.07;68.22;95776.69;5112264;27;20445;-76
2022/10/11 03:36:19;;;;;;;39.38;25.65;;;;;;;14.23;67.88;95799.50;5134072;27;20035;-76
2022/10/11 03:38:45;;;;;;;44.53;26.65;;;;;;;14.50;67.76;95823.81;5132708;27;20031;-75
2022/10/11 03:41:10;;;;;;;40.78;24.75;;;;;;;14.20;67.75;95782.19;5132073;27;20034;-76
2022/10/11 03:43:36;;;;;;;41.55;26.40;;;;;;;14.45;67.82;95818.53;5114045;27;20039;-76
2022/10/11 03:46:01;;;;;;;37.75;26.25;;;;;;;14.37;68.30;95819.09;5132791;27;20038;-76
2022/10/11 03:48:26;;;;;;;40.38;24.83;;;;;;;14.32;68.34;95821.84;5108008;27;20035;-76
2022/10/11 03:50:52;;;;;;;46.65;25.30;;;;;;;14.41;68.22;95833.53;5132299;27;20050;-76
2022/10/11 03:53:17;;;;;;;41.05;24.90;;;;;;;14.22;68.38;95795.25;5133010;27;20031;-76
2022/10/11 03:55:43;;;;;;;47.40;27.50;;;;;;;14.31;67.97;95804.22;5112049;27;20043;-75
2022/10/11 03:58:08;;;;;;;47.40;27.20;;;;;;;14.43;68.55;95833.22;5138142;27;20829;-75
2022/10/11 04:00:34;;;;;;;43.70;26.33;;;;;;;14.43;68.42;95833.22;5111316;27;20416;-76
2022/10/11 04:03:02;;;;;;;42.78;25.20;;;;;;;14.21;68.27;95778.44;5112752;27;20031;-75
2022/10/11 04:05:28;;;;;;;40.80;25.27;;;;;;;14.41;68.22;95816.72;5116494;27;20035;-75
2022/10/11 04:07:53;;;;;;;40.28;25.33;;;;;;;14.51;67.98;95814.72;5116588;27;20043;-76
2022/10/11 04:10:19;;;;;;;38.45;25.08;;;;;;;14.44;68.52;95821.47;5109924;27;20042;-76
2022/10/11 04:12:45;;;;;;;39.10;25.13;;;;;;;14.30;68.97;95819.44;5103367;27;20450;-75
2022/10/11 04:15:13;;;;;;;43.25;26.67;;;;;;;14.57;68.61;95834.19;5124359;27;20134;-75
2022/10/11 04:17:39;;;;;;;44.58;25.55;;;;;;;14.28;68.30;95784.22;5127518;27;20142;-76
2022/10/11 04:20:06;;;;;;;45.13;25.83;;;;;;;14.16;68.32;95788.38;5120109;27;20047;-76
2022/10/11 04:22:32;;;;;;;48.13;26.52;;;;;;;14.35;68.53;95810.59;5109181;27;20112;-76
2022/10/11 04:24:57;;;;;;;45.83;24.95;;;;;;;14.46;68.20;95817.47;5133052;27;20045;-76
2022/10/11 04:27:25;;;;;;;49.05;25.90;;;;;;;14.20;68.63;95781.38;5120390;27;20039;-76
2022/10/11 04:29:51;;;;;;;40.58;25.80;;;;;;;14.32;68.11;95784.47;5110432;27;20046;-76
2022/10/11 04:32:16;;;;;;;85.20;29.08;;;;;;;14.28;68.50;95800.25;5095872;27;20043;-75
2022/10/11 04:34:41;;;;;;;59.08;28.42;;;;;;;14.33;68.17;95779.94;5106512;27;20047;-76
2022/10/11 04:37:07;;;;;;;57.22;28.88;;;;;;;14.72;68.16;95842.03;5138482;27;20499;-76
2022/10/11 04:39:32;;;;;;;51.63;30.15;;;;;;;14.56;67.84;95820.03;5137314;27;20039;-75
2022/10/11 04:41:58;;;;;;;48.38;29.02;;;;;;;14.32;68.06;95799.69;5134707;27;20145;-75
2022/10/11 04:44:23;;;;;;;46.28;27.92;;;;;;;14.42;68.04;95803.06;5129161;27;20043;-76
2022/10/11 04:46:49;;;;;;;51.83;29.58;;;;;;;14.51;67.91;95804.06;5130756;27;20122;-76
2022/10/11 04:49:14;;;;;;;58.80;30.38;;;;;;;14.21;67.91;95769.63;5111159;27;20099;-76
2022/10/11 04:51:39;;;;;;;52.15;28.92;;;;;;;14.64;68.68;95845.31;5132956;27;20045;-76
2022/10/11 04:54:05;;;;;;;54.50;28.65;;;;;;;14.39;68.58;95806.31;5132224;27;20047;-76
2022/10/11 04:56:30;;;;;;;56.83;29.10;;;;;;;14.34;68.17;95787.66;5125808;27;20045;-76
2022/10/11 04:58:56;;;;;;;51.90;28.42;;;;;;;14.58;68.51;95812.50;5134938;27;20043;-76
2022/10/11 05:01:21;;;;;;;49.17;29.50;;;;;;;14.20;68.42;95757.38;5108863;27;20509;-77
2022/10/11 05:03:47;;;;;;;54.72;28.92;;;;;;;14.45;68.65;95815.84;5124795;27;20035;-76
2022/10/11 05:06:12;;;;;;;57.15;30.00;;;;;;;14.53;68.46;95817.91;5106215;27;20070;-82
2022/10/11 05:08:38;;;;;;;56.15;30.05;;;;;;;14.63;68.90;95841.84;5125872;27;20054;-79
2022/10/11 05:11:06;;;;;;;49.83;28.67;;;;;;;14.20;68.68;95768.84;5118326;27;20392;-78
2022/10/11 05:13:34;;;;;;;70.50;32.17;;;;;;;14.68;68.77;95844.47;5113828;27;20127;-79
2022/10/11 05:16:00;;;;;;;55.05;30.23;;;;;;;13.75;68.48;95686.59;5092299;27;20047;-78
2022/10/11 05:18:26;;;;;;;54.60;29.50;;;;;;;13.76;68.93;95685.53;5094154;27;20039;-78
2022/10/11 05:20:59;;;;;;;61.45;29.73;;;;;;;14.77;68.97;95839.28;5095700;27;20830;-78
2022/10/11 05:23:26;;;;;;;64.30;31.15;;;;;;;14.24;69.10;95771.75;5101274;27;20062;-80
2022/10/11 05:25:51;;;;;;;56.78;30.65;;;;;;;14.72;69.12;95849.25;5105321;27;20432;-79
2022/10/11 05:28:16;;;;;;;61.20;30.00;;;;;;;14.46;69.11;95806.78;5111754;27;20035;-77
2022/10/11 05:30:42;;;;;;;61.28;29.55;;;;;;;14.51;69.46;95833.41;5114483;27;20039;-77
2022/10/11 05:33:07;;;;;;;56.00;31.25;;;;;;;14.31;69.61;95788.22;5106502;27;20464;-78
2022/10/11 05:35:33;;;;;;;65.72;31.50;;;;;;;14.39;69.98;95811.66;5108230;27;20043;-78
2022/10/11 05:37:58;;;;;;;62.33;29.83;;;;;;;14.52;69.73;95826.19;5132117;27;20186;-79
2022/10/11 05:40:23;;;;;;;68.70;31.58;;;;;;;14.20;69.81;95770.72;5114201;27;20102;-79
2022/10/11 05:42:49;;;;;;;53.58;29.05;;;;;;;14.36;70.16;95801.50;5121617;27;20072;-78
2022/10/11 05:45:14;;;;;;;62.72;30.23;;;;;;;14.55;70.44;95841.66;5104723;27;20043;-78
2022/10/11 05:47:39;;;;;;;61.03;30.92;;;;;;;14.43;71.09;95823.34;5130830;27;20046;-78
2022/10/11 05:50:05;;;;;;;58.45;31.20;;;;;;;14.60;71.15;95860.28;5115738;27;20046;-78
2022/10/11 05:52:32;;;;;;;58.72;29.80;;;;;;;14.36;70.94;95812.19;5102105;27;20901;-77
2022/10/11 05:54:57;;;;;;;55.15;28.77;;;;;;;14.81;70.56;95871.56;5097175;27;20045;-78
2022/10/11 05:57:23;;;;;;;56.72;30.00;;;;;;;14.78;71.00;95872.94;5119018;27;20484;-76
2022/10/11 05:59:49;;;;;;;52.13;30.38;;;;;;;14.66;70.57;95832.47;5124596;27;20043;-77
2022/10/11 06:02:14;;;;;;;56.40;29.55;;;;;;;14.72;70.11;95818.00;5112620;27;20168;-80
2022/10/11 06:04:40;;;;;;;60.95;29.45;;;;;;;14.66;70.08;95811.09;5099788;27;20103;-79
2022/10/11 06:07:05;;;;;;;59.30;29.27;;;;;;;14.98;69.72;95846.00;5101327;27;20098;-81
2022/10/11 06:09:33;;;;;;;67.13;29.80;;;;;;;15.02;70.62;95867.59;5122298;27;20054;-80
2022/10/11 06:11:59;;;;;;;56.65;29.20;;;;;;;14.91;70.12;95837.53;5092462;27;20428;-76
2022/10/11 06:14:25;;;;;;;65.00;31.33;;;;;;;14.29;70.34;95743.13;5083105;27;20043;-78
2022/10/11 06:16:50;;;;;;;56.38;29.48;;;;;;;14.62;71.05;95794.88;5094878;27;20057;-78
2022/10/11 06:19:15;;;;;;;53.88;28.80;;;;;;;14.69;71.03;95802.53;5091249;27;20051;-76
2022/10/11 06:21:41;;;;;;;60.83;29.40;;;;;;;15.06;70.58;95844.56;5098275;27;20047;-79
2022/10/11 06:24:08;;;;;;;58.92;29.75;;;;;;;15.13;70.18;95847.69;5118302;27;20727;-77
2022/10/11 06:26:33;;;;;;;61.58;28.65;;;;;;;14.89;70.24;95780.13;5113912;27;20039;-78
2022/10/11 06:28:59;;;;;;;51.88;28.08;;;;;;;15.06;69.71;95812.53;5124432;27;20231;-78
2022/10/11 06:31:24;;;;;;;56.58;28.50;;;;;;;14.81;69.37;95775.44;5112977;27;20490;-79
2022/10/11 06:33:50;;;;;;;60.80;27.80;;;;;;;14.77;69.15;95780.56;5121342;27;20047;-78
2022/10/11 06:36:16;;;;;;;59.70;28.50;;;;;;;14.98;69.61;95810.47;5094646;28;20054;-77
2022/10/11 06:38:42;;;;;;;57.95;27.98;;;;;;;14.39;69.55;95715.59;5100689;27;20047;-78
2022/10/11 06:41:19;;;;;;;53.03;26.95;;;;;;;14.96;68.95;95800.06;5106777;28;20522;-78
2022/10/11 06:43:45;;;;;;;58.15;25.23;;;;;;;15.05;69.20;95821.59;5132292;27;20154;-78
2022/10/11 06:46:11;;;;;;;47.83;25.70;;;;;;;15.33;68.83;95866.13;5101664;27;20035;-78
2022/10/11 06:48:42;;;;;;;45.15;25.02;;;;;;;15.39;69.19;95866.91;5119850;27;20047;-78
2022/10/11 06:51:08;;;;;;;49.25;23.80;;;;;;;15.34;69.19;95870.41;5091504;28;20123;-78
2022/10/11 06:53:34;;;;;;;52.00;24.60;;;;;;;15.31;69.56;95878.22;5093998;28;20139;-79
2022/10/11 06:56:04;;;;;;;46.40;24.90;;;;;;;15.06;68.65;95823.22;5075661;28;20054;-78
2022/10/11 06:58:30;;;;;;;53.22;24.52;;;;;;;15.46;68.52;95888.72;5091323;28;20055;-80
2022/10/11 07:01:04;;;;;;;45.60;24.00;;;;;;;15.42;68.45;95869.78;5100402;28;20456;-80
2022/10/11 07:03:30;;;;;;;45.28;23.10;;;;;;;15.56;68.14;95890.50;5106710;27;20050;-78
2022/10/11 07:06:01;;;;;;;42.33;23.02;;;;;;;15.53;68.13;95875.81;5102667;28;20043;-77
2022/10/11 07:08:27;;;;;;;51.30;26.40;;;;;;;15.56;68.20;95891.31;5077317;27;20047;-79
2022/10/11 07:10:57;;;;;;;49.58;27.27;;;;;;;15.61;67.90;95882.41;5112300;27;20049;-78
2022/10/11 07:13:23;;;;;;;52.83;25.70;;;;;;;15.33;67.99;95831.41;5091790;27;20200;-76
2022/10/11 07:15:48;;;;;;;51.88;25.23;;;;;;;15.62;67.91;95876.78;5111303;27;20118;-76
2022/10/11 07:18:14;;;;;;;47.00;23.30;;;;;;;15.16;67.87;95796.38;5096317;27;20066;-76
2022/10/11 07:20:39;;;;;;;46.33;23.27;;;;;;;15.66;67.67;95864.41;5092522;27;20580;-76
2022/10/11 07:23:04;;;;;;;45.38;23.83;;;;;;;15.57;67.68;95860.00;5096902;28;20039;-75
2022/10/11 07:25:30;;;;;;;45.92;23.67;;;;;;;15.25;67.34;95794.66;5102482;27;20031;-76
2022/10/11 07:27:55;;;;;;;47.92;22.80;;;;;;;15.36;67.41;95827.38;5122249;27;20412;-76
2022/10/11 07:30:21;;;;;;;48.17;22.63;;;;;;;15.31;67.33;95812.22;5119919;27;20062;-75
2022/10/11 07:32:46;;;;;;;38.85;22.58;;;;;;;15.59;67.43;95861.31;5109935;28;20664;-76
2022/10/11 07:35:11;;;;;;;45.10;21.23;;;;;;;15.20;67.50;95820.63;5104865;28;20354;-76
2022/10/11 07:37:37;;;;;;;56.00;23.05;;;;;;;15.62;67.22;95862.63;5119238;27;20048;-78
2022/10/11 07:40:03;;;;;;;48.47;23.08;;;;;;;15.60;67.09;95852.19;5113019;27;20054;-78
2022/10/11 07:42:28;;;;;;;48.22;23.02;;;;;;;15.74;67.00;95849.59;5097472;27;20035;-78
2022/10/11 07:44:53;;;;;;;43.13;22.73;;;;;;;15.68;66.54;95832.84;5100180;27;20035;-78
2022/10/11 07:47:19;;;;;;;43.38;22.75;;;;;;;15.83;66.59;95851.34;5094810;27;20043;-78
2022/10/11 07:49:44;;;;;;;38.55;22.08;;;;;;;16.05;66.39;95856.09;5110605;27;20065;-78
2022/10/11 07:52:10;;;;;;;41.13;21.02;;;;;;;15.86;66.01;95839.28;5095749;27;20231;-81
2022/10/11 07:54:35;;;;;;;42.40;21.73;;;;;;;15.33;65.66;95759.25;5102614;27;20418;-78
2022/10/11 07:57:00;;;;;;;45.20;22.92;;;;;;;16.13;65.88;95886.75;5107255;27;20605;-79
2022/10/11 07:59:26;;;;;;;41.75;20.70;;;;;;;15.55;65.74;95777.44;5113401;27;20046;-79
2022/10/11 08:01:52;;;;;;;40.45;20.80;;;;;;;15.35;65.62;95748.28;5096684;27;20043;-80
2022/10/11 08:04:17;;;;;;;46.72;21.55;;;;;;;15.94;65.29;95827.91;5111111;27;20046;-77
2022/10/11 08:06:43;;;;;;;41.88;20.60;;;;;;;16.09;65.46;95834.91;5105960;27;20043;-77
2022/10/11 08:09:09;;;;;;;43.17;22.80;;;;;;;16.36;65.07;95869.78;5102085;27;20055;-77
2022/10/11 08:11:36;;;;;;;44.15;21.98;;;;;;;16.13;65.23;95851.97;5122316;27;20743;-76
2022/10/11 08:14:05;;;;;;;42.88;21.25;;;;;;;16.36;65.07;95866.31;5101642;27;20043;-77
2022/10/11 08:16:30;;;;;;;51.75;22.58;;;;;;;16.31;65.25;95872.56;5087618;27;20105;-77
2022/10/11 08:18:56;;;;;;;38.50;21.77;;;;;;;16.41;64.75;95890.31;5101065;27;20521;-77
2022/10/11 08:21:21;;;;;;;37.40;21.10;;;;;;;16.34;64.85;95876.50;5097925;27;20135;-77
2022/10/11 08:23:47;;;;;;;41.17;21.67;;;;;;;15.91;65.24;95836.50;5099550;27;20395;-77
2022/10/11 08:26:13;;;;;;;45.10;22.77;;;;;;;15.51;65.00;95757.66;5118689;27;20042;-77
2022/10/11 08:28:38;;;;;;;41.92;22.80;;;;;;;15.64;65.21;95789.03;5109330;27;20046;-77
2022/10/11 08:31:04;;;;;;;53.78;22.23;;;;;;;16.39;65.16;95890.63;5111574;27;20053;-78
2022/10/11 08:33:30;;;;;;;48.45;23.42;;;;;;;16.51;64.44;95895.50;5112070;27;20577;-77
2022/10/11 08:35:56;;;;;;;40.00;22.00;;;;;;;16.61;64.67;95892.69;5111665;27;20045;-79
2022/10/11 08:38:22;;;;;;;49.92;22.90;;;;;;;16.28;64.25;95834.84;5107998;27;20058;-78
2022/10/11 08:40:50;;;;;;;42.75;22.40;;;;;;;16.53;64.53;95896.00;5095634;27;20053;-77
2022/10/11 08:43:42;;;;;;;41.08;20.90;;;;;;;16.36;64.09;95842.22;5097903;27;20076;-80
2022/10/11 08:46:10;;;;;;;43.50;21.42;;;;;;;15.91;64.29;95780.34;5118017;27;20187;-80
2022/10/11 08:48:40;;;;;;;47.13;21.75;;;;;;;16.74;63.72;95889.25;5095019;27;20069;-76
2022/10/11 08:51:42;;;;;;;44.00;22.25;;;;;;;16.89;63.17;95886.28;5103722;27;20043;-78
2022/10/11 08:54:16;;;;;;;37.35;18.35;;;;;;;16.90;63.19;95884.41;5109755;27;20061;-79
2022/10/11 08:56:44;;;;;;;41.15;21.52;;;;;;;17.02;63.32;95891.94;5116468;27;20146;-79
2022/10/11 08:59:12;;;;;;;42.38;20.27;;;;;;;16.88;62.97;95887.38;5114111;27;20043;-79
2022/10/11 09:01:47;;;;;;;35.88;19.45;;;;;;;16.91;63.12;95889.47;5119120;27;20059;-79
2022/10/11 09:04:16;;;;;;;36.17;20.20;;;;;;;16.96;63.07;95884.03;5116602;27;20119;-79
2022/10/11 09:06:58;;;;;;;36.97;21.02;;;;;;;17.11;62.57;95884.81;5122365;27;20039;-78
2022/10/11 09:09:47;;;;;;;41.58;20.45;;;;;;;17.11;62.53;95882.13;5103180;27;20051;-79
2022/10/11 09:12:22;;;;;;;35.10;19.33;;;;;;;16.78;62.67;95825.94;5120190;27;20065;-78
2022/10/11 09:15:03;;;;;;;36.90;19.92;;;;;;;17.26;61.92;95871.13;5108552;27;20069;-79
2022/10/11 09:17:54;;;;;;;37.60;19.88;;;;;;;17.41;61.33;95875.38;5113066;27;20228;-79
2022/10/11 09:20:44;;;;;;;33.40;18.08;;;;;;;17.56;60.75;95869.69;5107347;27;20449;-78
2022/10/11 09:23:26;;;;;;;33.38;18.55;;;;;;;17.64;60.67;95866.34;5118871;27;20461;-79
2022/10/11 09:25:59;;;;;;;34.35;17.92;;;;;;;17.61;60.36;95829.38;5102627;27;20162;-80
2022/10/11 09:28:53;;;;;;;34.28;19.45;;;;;;;17.95;60.10;95863.78;5124466;27;20102;-83
2022/10/11 09:31:20;;;;;;;35.53;18.67;;;;;;;17.91;59.59;95847.50;5095213;27;20120;-77
2022/10/11 09:33:51;;;;;;;33.90;19.58;;;;;;;17.93;59.59;95852.56;5117028;27;20537;-76
2022/10/11 09:36:41;;;;;;;32.22;19.02;;;;;;;18.18;58.76;95872.66;5096725;27;20059;-77
2022/10/11 09:39:33;;;;;;;29.73;18.95;;;;;;;18.12;58.20;95870.09;5080760;27;20042;-77
2022/10/11 09:42:05;;;;;;;31.55;19.20;;;;;;;17.86;57.90;95799.31;5109293;27;20070;-78
2022/10/11 09:44:38;;;;;;;36.85;19.90;;;;;;;18.33;58.02;95875.75;5114637;27;20410;-79
2022/10/11 09:47:06;;;;;;;36.88;19.58;;;;;;;18.23;58.21;95862.59;5100165;27;20074;-77
2022/10/11 09:49:41;;;;;;;27.33;17.00;;;;;;;18.26;57.47;95861.97;5126140;27;20108;-78
2022/10/11 09:52:18;;;;;;;37.58;18.25;;;;;;;18.25;57.49;95854.22;5110711;27;20050;-78
2022/10/11 09:54:50;;;;;;;42.28;18.63;;;;;;;18.18;58.03;95822.44;5112808;27;20766;-79
2022/10/11 09:57:21;;;;;;;40.20;19.10;;;;;;;18.39;58.62;95854.94;5100562;27;20073;-78
2022/10/11 10:00:20;;;;;;;42.40;19.60;;;;;;;18.08;58.28;95817.31;5105462;27;20043;-78
2022/10/11 10:02:51;;;;;;;40.72;20.10;;;;;;;18.46;58.72;95852.66;5105246;27;20093;-78
2022/10/11 10:05:25;;;;;;;35.33;19.88;;;;;;;18.57;58.06;95854.00;5114399;27;20054;-78
2022/10/11 10:08:00;;;;;;;36.05;18.67;;;;;;;18.61;57.77;95848.81;5102490;27;20039;-78
2022/10/11 10:10:39;;;;;;;32.15;19.63;;;;;;;18.58;58.15;95825.25;5105713;27;20047;-78
2022/10/11 10:13:17;;;;;;;35.17;19.95;;;;;;;18.76;57.10;95824.25;5109112;27;20545;-77
2022/10/11 10:15:52;;;;;;;37.33;20.50;;;;;;;18.86;56.78;95830.13;5101585;27;20149;-76
2022/10/11 10:18:33;;;;;;;34.28;19.65;;;;;;;19.09;56.06;95841.59;5101489;27;20047;-80
2022/10/11 10:21:01;;;;;;;34.47;17.92;;;;;;;19.21;55.16;95839.13;5102152;27;20065;-78
2022/10/11 10:23:31;;;;;;;33.50;19.13;;;;;;;19.11;54.49;95817.09;5102300;27;20150;-77
2022/10/11 10:26:19;;;;;;;35.83;19.77;;;;;;;19.50;54.39;95840.47;5087195;27;20044;-77
2022/10/11 10:29:09;;;;;;;37.90;18.48;;;;;;;19.91;53.71;95843.50;5081523;27;20039;-82
2022/10/11 10:31:34;;;;;;;32.78;18.30;;;;;;;20.04;52.33;95820.25;5091980;27;20413;-77
2022/10/11 10:34:13;;;;;;;31.20;17.90;;;;;;;20.23;51.48;95801.06;5098570;27;20044;-77
2022/10/11 10:36:44;;;;;;;35.05;19.55;;;;;;;20.47;50.80;95795.97;5101293;28;20380;-76
2022/10/11 10:39:25;;;;;;;33.37;18.20;;;;;;;20.66;51.60;95827.97;5083980;28;20465;-76
2022/10/11 10:41:50;;;;;;;26.50;17.48;;;;;;;20.30;51.38;95791.38;5102559;28;20043;-76
2022/10/11 10:44:16;;;;;;;30.65;17.23;;;;;;;20.67;51.02;95816.84;5094080;27;20325;-76
2022/10/11 10:46:56;;;;;;;28.27;17.88;;;;;;;20.78;49.69;95812.69;5091777;28;20439;-77
2022/10/11 10:49:32;;;;;;;26.37;16.60;;;;;;;21.01;48.56;95798.94;5101841;27;20100;-77
2022/10/11 10:52:04;;;;;;;30.70;17.35;;;;;;;21.19;49.01;95808.59;5098600;28;20039;-77
2022/10/11 10:55:03;;;;;;;26.50;17.67;;;;;;;21.70;47.87;95799.38;5103779;27;20043;-79
2022/10/11 10:57:55;;;;;;;28.00;14.75;;;;;;;22.17;46.90;95799.97;5094802;27;20050;-78
2022/10/11 11:00:23;;;;;;;24.85;16.80;;;;;;;22.70;45.43;95799.09;5082436;28;20222;-77
2022/10/11 11:03:29;;;;;;;26.73;15.25;;;;;;;23.01;44.60;95774.25;5090331;28;20561;-77
2022/10/11 11:06:05;;;;;;;24.33;15.82;;;;;;;23.24;44.09;95788.13;5058100;28;20468;-78
2022/10/11 11:08:53;;;;;;;25.73;17.05;;;;;;;23.39;43.73;95790.16;5119472;27;20059;-79
2022/10/11 11:11:25;;;;;;;34.65;18.63;;;;;;;23.52;43.30;95795.56;5090752;27;20406;-80
2022/10/11 11:14:10;;;;;;;29.23;16.92;;;;;;;23.28;43.88;95797.13;5102509;27;20394;-77
2022/10/11 11:16:35;;;;;;;29.63;17.35;;;;;;;23.30;43.63;95786.75;5092286;27;20046;-78
2022/10/11 11:19:43;;;;;;;33.92;21.30;;;;;;;23.30;43.56;95792.19;5084442;27;20051;-79
2022/10/11 11:22:29;;;;;;;27.63;17.88;;;;;;;22.90;44.12;95783.94;5110524;27;20133;-78
2022/10/11 11:25:24;;;;;;;26.63;16.70;;;;;;;23.12;44.41;95784.63;5087105;27;20051;-77
2022/10/11 11:28:12;;;;;;;28.65;17.83;;;;;;;22.88;44.89;95786.22;5096221;27;20372;-76
2022/10/11 11:30:56;;;;;;;28.13;17.50;;;;;;;22.86;45.32;95784.97;5102726;27;20067;-78
2022/10/11 11:33:42;;;;;;;21.77;14.40;;;;;;;22.69;44.90;95778.59;5110211;27;20133;-78
2022/10/11 11:36:12;;;;;;;25.08;16.15;;;;;;;22.55;45.19;95775.41;5107657;27;20153;-78
2022/10/11 11:38:53;;;;;;;27.13;16.70;;;;;;;22.06;45.17;95714.25;5113135;27;20050;-78
2022/10/11 11:41:27;;;;;;;22.90;16.38;;;;;;;22.44;45.95;95774.25;5109424;27;20031;-79
2022/10/11 11:44:01;;;;;;;25.02;15.57;;;;;;;22.46;45.68;95771.22;5120301;27;20031;-77
2022/10/11 11:46:44;;;;;;;22.90;16.05;;;;;;;22.08;45.77;95768.75;5105061;27;20058;-76
2022/10/11 11:49:23;;;;;;;22.55;15.90;;;;;;;21.19;45.68;95654.84;5099663;27;20038;-76
2022/10/11 11:51:50;;;;;;;29.83;17.75;;;;;;;21.79;46.49;95764.22;5111603;27;20039;-76
2022/10/11 11:54:49;;;;;;;27.00;15.68;;;;;;;21.67;46.70;95756.03;5102198;27;20058;-76
2022/10/11 11:57:41;;;;;;;26.48;16.05;;;;;;;21.26;47.07;95741.44;5106014;27;20138;-76
2022/10/11 12:00:26;;;;;;;25.08;15.88;;;;;;;20.84;47.06;95683.91;5098945;27;20469;-76
2022/10/11 12:03:00;;;;;;;28.05;17.77;;;;;;;21.24;47.48;95765.22;5091740;27;20031;-77
2022/10/11 12:05:33;;;;;;;27.98;18.05;;;;;;;21.24;48.39;95757.13;5090912;27;20043;-77
2022/10/11 12:08:03;;;;;;;31.30;17.77;;;;;;;21.03;48.90;95764.38;5084009;27;20576;-76
2022/10/11 12:10:31;;;;;;;29.52;17.35;;;;;;;20.98;49.02;95756.47;5099977;27;20043;-75
2022/10/11 12:13:16;;;;;;;30.77;17.25;;;;;;;20.68;49.73;95761.03;5096779;27;20100;-76
2022/10/11 12:16:04;;;;;;;31.33;18.25;;;;;;;20.45;49.44;95713.88;5087380;27;20065;-76
2022/10/11 12:18:33;;;;;;;28.00;18.13;;;;;;;20.44;49.92;95723.09;5115165;27;20446;-76
2022/10/11 12:21:16;;;;;;;32.08;18.42;;;;;;;20.56;50.11;95753.63;5096986;27;20038;-76
2022/10/11 12:23:51;;;;;;;26.33;17.00;;;;;;;20.51;50.37;95758.41;5108756;27;20036;-76
2022/10/11 12:26:16;;;;;;;26.48;16.88;;;;;;;20.45;50.07;95756.97;5108285;27;20035;-78
2022/10/11 12:28:42;;;;;;;27.85;16.52;;;;;;;20.42;50.10;95753.06;5101828;27;20039;-77
2022/10/11 12:31:26;;;;;;;29.17;17.00;;;;;;;20.12;51.01;95752.16;5100248;27;20528;-76
2022/10/11 12:34:01;;;;;;;28.50;17.50;;;;;;;20.06;50.97;95748.03;5110834;27;20381;-76
2022/10/11 12:36:27;;;;;;;31.13;17.10;;;;;;;19.84;51.33;95753.59;5110255;27;20077;-76
2022/10/11 12:39:18;;;;;;;32.80;16.63;;;;;;;19.85;51.54;95750.59;5110896;27;20130;-77
2022/10/11 12:41:47;;;;;;;38.43;17.10;;;;;;;19.93;51.95;95751.69;5110782;27;20031;-76
2022/10/11 12:44:27;;;;;;;27.65;15.98;;;;;;;19.78;51.28;95704.53;5094199;27;20640;-75